Time;durP1;ratioP1;P1;durP2;ratioP2;P2;SDS_P1;SDS_P2;PMS_P1;PMS_P2;Temp;Humidity;BMP_temperature;BMP_pressure;BME280_temperature;BME280_humidity;BME280_pressure;Samples;Min_cycle;Max_cycle;Signal;HPM_P1;HPM_P2
2021/10/06 00:01:27;;;;;;;3.97;0.13;;;10.80;99.90;;;;;;5013203;28;20042;-78
2021/10/06 00:03:53;;;;;;;0.95;0.00;;;10.80;99.90;;;;;;5013892;28;20155;-79
2021/10/06 00:06:18;;;;;;;2.58;0.20;;;10.80;99.90;;;;;;5014163;28;20038;-75
2021/10/06 00:08:44;;;;;;;2.10;0.00;;;10.80;99.90;;;;;;5014500;28;20096;-75
2021/10/06 00:11:09;;;;;;;4.60;0.20;;;10.80;99.90;;;;;;5012765;28;20029;-75
2021/10/06 00:13:35;;;;;;;3.55;0.28;;;10.80;99.90;;;;;;5014440;28;20022;-76
2021/10/06 00:16:02;;;;;;;3.35;0.00;;;10.80;99.90;;;;;;5012455;28;20028;-76
2021/10/06 00:18:27;;;;;;;5.93;0.80;;;12.00;99.90;;;;;;5013814;28;20402;-76
2021/10/06 00:20:54;;;;;;;3.45;0.60;;;10.70;99.90;;;;;;5014046;28;20022;-76
2021/10/06 00:23:19;;;;;;;3.00;0.90;;;10.70;99.90;;;;;;5012576;28;20117;-77
2021/10/06 00:25:45;;;;;;;2.55;0.30;;;10.80;99.90;;;;;;5012594;28;20112;-77
2021/10/06 00:28:11;;;;;;;3.25;0.35;;;10.80;99.90;;;;;;5014061;28;20025;-77
2021/10/06 00:30:36;;;;;;;5.88;0.45;;;10.80;99.90;;;;;;5012367;28;20038;-77
2021/10/06 00:33:02;;;;;;;9.02;0.85;;;10.90;99.90;;;;;;5010569;28;20125;-77
2021/10/06 00:35:27;;;;;;;4.43;0.57;;;10.90;99.90;;;;;;5012117;28;20494;-77
2021/10/06 00:37:53;;;;;;;4.20;0.52;;;10.90;99.90;;;;;;5012127;28;20076;-76
2021/10/06 00:40:19;;;;;;;1.70;0.32;;;10.90;99.90;;;;;;5013975;28;20022;-76
2021/10/06 00:42:44;;;;;;;4.97;0.30;;;10.90;99.90;;;;;;5013540;28;20108;-76
2021/10/06 00:45:10;;;;;;;2.78;0.70;;;10.90;99.90;;;;;;5013932;28;20025;-77
2021/10/06 00:47:36;;;;;;;6.05;0.15;;;10.90;99.90;;;;;;5013629;28;20026;-77
2021/10/06 00:50:02;;;;;;;7.88;0.40;;;11.00;99.90;;;;;;5012130;28;20022;-76
2021/10/06 00:52:27;;;;;;;1.95;0.08;;;10.90;99.90;;;;;;5012981;28;20391;-76
2021/10/06 00:54:53;;;;;;;1.77;0.38;;;10.90;99.90;;;;;;5012869;28;20030;-76
2021/10/06 00:57:18;;;;;;;3.30;0.13;;;11.00;99.90;;;;;;5013819;28;20044;-77
2021/10/06 00:59:44;;;;;;;4.93;0.25;;;11.00;99.90;;;;;;5012506;28;20471;-77
2021/10/06 01:02:10;;;;;;;2.90;0.20;;;11.00;99.90;;;;;;5012120;28;20030;-76
2021/10/06 01:04:36;;;;;;;4.20;0.00;;;11.00;99.90;;;;;;5013485;28;20029;-76
2021/10/06 01:07:02;;;;;;;3.10;0.35;;;11.10;99.90;;;;;;5013133;28;20076;-76
2021/10/06 01:09:29;;;;;;;3.55;0.00;;;11.10;99.90;;;;;;5014040;28;20100;-76
2021/10/06 01:11:56;;;;;;;7.15;0.60;;;11.20;99.90;;;;;;5013031;28;20029;-76
2021/10/06 01:14:23;;;;;;;2.22;0.10;;;11.20;99.90;;;;;;5013104;28;20034;-76
2021/10/06 01:16:50;;;;;;;3.65;0.20;;;11.20;99.90;;;;;;5013355;28;20026;-78
2021/10/06 01:19:25;;;;;;;4.25;0.10;;;11.20;99.90;;;;;;5013343;28;20030;-78
2021/10/06 01:21:53;;;;;;;8.25;0.00;;;11.10;99.90;;;;;;5016209;28;20072;-79
2021/10/06 01:24:20;;;;;;;1.20;0.38;;;11.20;99.90;;;;;;5015704;28;20508;-77
2021/10/06 01:26:46;;;;;;;3.30;0.10;;;11.10;99.90;;;;;;5014213;28;20079;-77
2021/10/06 01:29:14;;;;;;;2.50;0.00;;;11.20;99.90;;;;;;5014914;28;20022;-77
2021/10/06 01:31:42;;;;;;;1.13;0.08;;;11.10;99.90;;;;;;5012576;28;20021;-76
2021/10/06 01:34:07;;;;;;;6.00;0.10;;;11.10;99.90;;;;;;5013440;28;20415;-76
2021/10/06 01:36:33;;;;;;;3.13;0.10;;;11.10;99.90;;;;;;5011819;28;20505;-76
2021/10/06 01:38:59;;;;;;;2.10;0.00;;;11.00;99.90;;;;;;5013195;28;20682;-76
2021/10/06 01:41:24;;;;;;;10.73;0.32;;;11.00;99.90;;;;;;5011741;28;20026;-75
2021/10/06 01:43:50;;;;;;;1.13;0.00;;;11.00;99.90;;;;;;5012907;28;20101;-76
2021/10/06 01:46:17;;;;;;;0.95;0.00;;;10.90;99.90;;;;;;5011830;28;20045;-76
2021/10/06 01:48:43;;;;;;;1.70;0.35;;;11.00;99.90;;;;;;5011648;28;20025;-75
2021/10/06 01:51:08;;;;;;;1.95;0.00;;;11.00;99.90;;;;;;5013038;28;20022;-76
2021/10/06 01:53:39;;;;;;;5.10;0.47;;;11.00;99.90;;;;;;5012935;28;20088;-76
2021/10/06 01:56:05;;;;;;;2.22;0.20;;;11.00;99.90;;;;;;5013324;28;20025;-78
2021/10/06 01:58:32;;;;;;;2.85;0.20;;;11.30;99.90;;;;;;5013980;28;20108;-78
2021/10/06 02:00:57;;;;;;;1.58;0.20;;;10.90;99.90;;;;;;5012066;28;20116;-78
2021/10/06 02:03:23;;;;;;;3.92;0.20;;;10.80;99.90;;;;;;5012690;28;20065;-76
2021/10/06 02:05:48;;;;;;;5.60;0.00;;;10.80;99.90;;;;;;5013003;28;20018;-77
2021/10/06 02:08:15;;;;;;;6.13;0.00;;;10.80;99.90;;;;;;5016452;28;20057;-79
2021/10/06 02:10:42;;;;;;;6.50;0.03;;;10.90;99.90;;;;;;5015361;28;20026;-79
2021/10/06 02:13:08;;;;;;;2.58;0.20;;;10.80;99.90;;;;;;5018096;28;20025;-78
2021/10/06 02:15:34;;;;;;;4.22;0.38;;;10.80;99.90;;;;;;5017401;28;20033;-77
2021/10/06 02:18:00;;;;;;;4.47;0.47;;;10.80;99.90;;;;;;5017950;28;20395;-78
2021/10/06 02:20:27;;;;;;;0.93;0.00;;;10.80;99.90;;;;;;5018086;28;20446;-77
2021/10/06 02:22:53;;;;;;;4.80;0.20;;;10.80;99.90;;;;;;5016922;28;20032;-77
2021/10/06 02:25:20;;;;;;;6.15;0.40;;;10.90;99.90;;;;;;5017986;28;20029;-77
2021/10/06 02:27:46;;;;;;;3.30;0.10;;;10.80;99.90;;;;;;5018536;28;20037;-78
2021/10/06 02:30:13;;;;;;;0.17;0.00;;;10.80;99.90;;;;;;5018572;28;20018;-77
2021/10/06 02:32:40;;;;;;;2.60;0.17;;;10.80;99.90;;;;;;5018474;28;20108;-77
2021/10/06 02:35:07;;;;;;;2.22;0.35;;;10.80;99.90;;;;;;5019416;28;20044;-77
2021/10/06 02:37:33;;;;;;;1.27;0.00;;;10.80;99.90;;;;;;5019959;28;20437;-77
2021/10/06 02:39:58;;;;;;;3.00;0.00;;;10.90;99.90;;;;;;5018555;28;20113;-77
2021/10/06 02:42:24;;;;;;;3.47;0.00;;;10.80;99.90;;;;;;5019014;28;20113;-76
2021/10/06 02:44:50;;;;;;;9.50;0.68;;;10.80;99.90;;;;;;5018679;28;20560;-76
2021/10/06 02:47:15;;;;;;;6.80;0.70;;;10.90;99.90;;;;;;5020948;28;20026;-77
2021/10/06 02:49:41;;;;;;;2.50;0.00;;;10.80;99.90;;;;;;5018581;28;20025;-77
2021/10/06 02:52:07;;;;;;;5.07;0.00;;;10.80;99.90;;;;;;5019330;28;20018;-76
2021/10/06 02:54:32;;;;;;;2.78;0.08;;;10.80;99.90;;;;;;5014433;28;20125;-76
2021/10/06 02:57:04;;;;;;;0.47;0.00;;;10.80;99.90;;;;;;5017406;28;20103;-76
2021/10/06 02:59:34;;;;;;;3.17;0.00;;;10.80;99.90;;;;;;5019387;28;20034;-75
2021/10/06 03:02:00;;;;;;;4.93;0.55;;;10.80;99.90;;;;;;5018501;28;20026;-77
2021/10/06 03:04:26;;;;;;;8.05;0.20;;;10.80;99.90;;;;;;5019342;28;20034;-77
2021/10/06 03:06:51;;;;;;;1.98;0.00;;;10.80;99.90;;;;;;5020816;28;20033;-76
2021/10/06 03:09:17;;;;;;;3.85;0.00;;;10.80;99.90;;;;;;5020119;28;20075;-78
2021/10/06 03:11:43;;;;;;;2.92;0.00;;;10.80;99.90;;;;;;5019671;28;20042;-78
2021/10/06 03:14:10;;;;;;;0.90;0.00;;;10.80;99.90;;;;;;5017004;28;20022;-77
2021/10/06 03:16:36;;;;;;;1.27;0.00;;;10.80;99.90;;;;;;5018629;28;20105;-77
2021/10/06 03:19:01;;;;;;;2.72;0.00;;;10.80;99.90;;;;;;5016640;28;20076;-77
2021/10/06 03:21:27;;;;;;;2.95;0.00;;;10.80;99.90;;;;;;5018683;28;20444;-77
2021/10/06 03:23:52;;;;;;;4.03;0.00;;;10.70;99.90;;;;;;5019081;28;20032;-76
2021/10/06 03:26:18;;;;;;;1.98;0.10;;;10.70;99.90;;;;;;5018606;28;20025;-77
2021/10/06 03:28:44;;;;;;;1.58;0.00;;;10.70;99.90;;;;;;5017828;28;20026;-77
2021/10/06 03:31:10;;;;;;;2.03;0.00;;;10.70;99.90;;;;;;5017106;28;20049;-77
2021/10/06 03:33:35;;;;;;;1.80;0.30;;;10.60;99.90;;;;;;5018815;28;20117;-78
2021/10/06 03:36:01;;;;;;;2.17;0.00;;;10.60;99.90;;;;;;5015902;28;20041;-77
2021/10/06 03:38:26;;;;;;;2.28;0.00;;;10.60;99.90;;;;;;5018264;28;20391;-78
2021/10/06 03:40:52;;;;;;;2.17;0.00;;;10.60;99.90;;;;;;5017355;28;20026;-77
2021/10/06 03:43:17;;;;;;;3.33;0.00;;;10.60;99.90;;;;;;5017309;28;20084;-78
2021/10/06 03:45:43;;;;;;;2.22;0.00;;;10.60;99.90;;;;;;5018269;28;20033;-78
2021/10/06 03:48:09;;;;;;;1.17;0.00;;;10.60;99.90;;;;;;5017077;28;20014;-77
2021/10/06 03:50:35;;;;;;;1.02;0.00;;;10.50;99.90;;;;;;5018354;28;20037;-77
2021/10/06 03:53:02;;;;;;;3.03;0.20;;;10.50;99.90;;;;;;5016952;28;20022;-77
2021/10/06 03:55:27;;;;;;;3.00;0.00;;;10.60;99.90;;;;;;5017937;28;20026;-79
2021/10/06 03:57:53;;;;;;;2.15;0.00;;;10.60;99.90;;;;;;5017057;28;20022;-77
2021/10/06 04:00:22;;;;;;;2.58;0.00;;;10.60;99.90;;;;;;5017956;28;20026;-77
2021/10/06 04:02:48;;;;;;;5.75;0.00;;;10.60;99.90;;;;;;5017543;28;20111;-77
2021/10/06 04:05:13;;;;;;;0.55;0.00;;;10.60;99.90;;;;;;5018046;28;20034;-77
2021/10/06 04:07:39;;;;;;;2.25;0.45;;;10.50;99.90;;;;;;5017320;28;20026;-77
2021/10/06 04:10:06;;;;;;;1.70;0.00;;;10.50;99.90;;;;;;5017129;28;20368;-77
2021/10/06 04:12:31;;;;;;;3.40;0.00;;;10.50;99.90;;;;;;5018097;28;20046;-77
2021/10/06 04:14:57;;;;;;;1.92;0.10;;;10.50;99.90;;;;;;5016593;28;20066;-77
2021/10/06 04:17:22;;;;;;;4.45;0.22;;;10.50;99.90;;;;;;5016433;28;20475;-77
2021/10/06 04:19:48;;;;;;;2.38;0.00;;;10.50;99.90;;;;;;5018156;28;20109;-78
2021/10/06 04:22:14;;;;;;;1.73;0.00;;;10.50;99.90;;;;;;5018417;28;20057;-77
2021/10/06 04:24:39;;;;;;;4.75;0.00;;;10.50;99.90;;;;;;5014833;28;20025;-78
2021/10/06 04:27:05;;;;;;;7.53;0.28;;;10.40;99.90;;;;;;5016184;28;20360;-78
2021/10/06 04:29:30;;;;;;;1.20;0.00;;;10.40;99.90;;;;;;5017543;28;20029;-79
2021/10/06 04:31:56;;;;;;;2.42;0.10;;;10.40;99.90;;;;;;5017473;28;20123;-79
2021/10/06 04:34:22;;;;;;;5.28;0.00;;;10.40;99.90;;;;;;5014488;28;20049;-80
2021/10/06 04:36:50;;;;;;;1.67;0.00;;;10.40;99.90;;;;;;5018235;28;20026;-77
2021/10/06 04:39:15;;;;;;;3.20;0.30;;;10.40;99.90;;;;;;5016655;28;20022;-79
2021/10/06 04:41:41;;;;;;;1.48;0.03;;;10.40;99.90;;;;;;5017791;28;20033;-78
2021/10/06 04:44:06;;;;;;;4.38;0.15;;;10.40;99.90;;;;;;5017937;28;20048;-78
2021/10/06 04:46:32;;;;;;;8.00;0.30;;;10.50;99.90;;;;;;5015625;28;20026;-77
2021/10/06 04:48:58;;;;;;;1.60;0.00;;;10.40;99.90;;;;;;5016284;28;20022;-76
2021/10/06 04:51:24;;;;;;;1.77;0.17;;;10.50;99.90;;;;;;5017363;28;20049;-77
2021/10/06 04:53:50;;;;;;;2.88;0.30;;;10.50;99.90;;;;;;5015812;28;20030;-77
2021/10/06 04:56:15;;;;;;;2.85;0.10;;;10.40;99.90;;;;;;5016175;28;20033;-77
2021/10/06 04:58:41;;;;;;;3.00;0.00;;;10.40;99.90;;;;;;5017206;28;20045;-77
2021/10/06 05:01:07;;;;;;;4.70;0.55;;;10.50;99.90;;;;;;5015904;28;20036;-77
2021/10/06 05:03:32;;;;;;;3.92;0.00;;;10.50;99.90;;;;;;5015734;28;20030;-77
2021/10/06 05:05:58;;;;;;;3.42;0.00;;;10.50;99.90;;;;;;5017231;28;20037;-77
2021/10/06 05:08:23;;;;;;;1.67;0.00;;;10.50;99.90;;;;;;5017610;28;20365;-77
2021/10/06 05:10:49;;;;;;;4.65;0.00;;;10.50;99.90;;;;;;5017436;28;20026;-76
2021/10/06 05:13:14;;;;;;;7.65;0.65;;;10.60;99.90;;;;;;5017694;28;20018;-77
2021/10/06 05:15:40;;;;;;;1.55;0.00;;;10.60;99.90;;;;;;5016746;28;20065;-78
2021/10/06 05:18:06;;;;;;;3.75;0.00;;;10.60;99.90;;;;;;5016829;28;20046;-77
2021/10/06 05:20:31;;;;;;;2.33;0.00;;;10.70;99.90;;;;;;5015916;28;20033;-79
2021/10/06 05:22:57;;;;;;;1.55;0.28;;;10.60;99.90;;;;;;4996085;28;20550;-75
2021/10/06 05:25:23;;;;;;;4.15;0.38;;;10.70;99.90;;;;;;5011947;28;20026;-76
2021/10/06 05:27:49;;;;;;;2.13;0.00;;;10.70;99.90;;;;;;5015476;28;20026;-78
2021/10/06 05:30:15;;;;;;;2.75;0.10;;;10.70;99.90;;;;;;5012545;28;20447;-79
2021/10/06 05:32:41;;;;;;;1.27;0.05;;;10.70;99.90;;;;;;5012036;28;20010;-76
2021/10/06 05:35:09;;;;;;;0.80;0.00;;;10.70;99.90;;;;;;5013064;28;20046;-77
2021/10/06 05:37:34;;;;;;;1.17;0.00;;;10.70;99.90;;;;;;5012905;28;20080;-79
2021/10/06 05:40:00;;;;;;;2.65;0.00;;;10.70;99.90;;;;;;5016790;28;20022;-77
2021/10/06 05:42:25;;;;;;;2.92;0.00;;;10.80;99.90;;;;;;5019815;28;20033;-78
2021/10/06 05:44:51;;;;;;;1.15;0.00;;;10.80;99.90;;;;;;5020410;28;20033;-78
2021/10/06 05:47:16;;;;;;;1.95;0.10;;;10.80;99.90;;;;;;5019494;28;20580;-78
2021/10/06 05:49:42;;;;;;;5.10;0.73;;;10.90;99.90;;;;;;5020195;28;20052;-78
2021/10/06 05:52:07;;;;;;;2.67;0.03;;;10.90;99.90;;;;;;5019130;28;20098;-78
2021/10/06 05:54:34;;;;;;;3.20;0.30;;;10.90;99.90;;;;;;5020164;28;20481;-76
2021/10/06 05:57:00;;;;;;;2.20;0.00;;;11.00;99.90;;;;;;5018248;28;20029;-77
2021/10/06 05:59:31;;;;;;;2.35;0.00;;;11.00;99.90;;;;;;5020327;28;20082;-76
2021/10/06 06:01:56;;;;;;;5.43;0.10;;;11.00;99.90;;;;;;5020177;28;20022;-76
2021/10/06 06:04:22;;;;;;;3.55;0.10;;;11.00;99.90;;;;;;5017166;28;20076;-77
2021/10/06 06:06:47;;;;;;;4.57;0.75;;;11.00;99.90;;;;;;5018718;28;20036;-77
2021/10/06 06:09:20;;;;;;;0.90;0.00;;;11.10;99.90;;;;;;5019725;28;20026;-76
2021/10/06 06:11:46;;;;;;;3.85;0.20;;;11.10;99.90;;;;;;5018931;28;20021;-76
2021/10/06 06:14:12;;;;;;;8.43;0.10;;;11.10;99.90;;;;;;5020590;28;20030;-77
2021/10/06 06:16:47;;;;;;;4.85;0.32;;;11.10;99.90;;;;;;5022965;28;20025;-76
2021/10/06 06:19:13;;;;;;;3.88;0.28;;;11.20;99.90;;;;;;5020763;28;20049;-75
2021/10/06 06:21:40;;;;;;;1.75;0.30;;;12.90;99.90;;;;;;5021744;28;20026;-77
2021/10/06 06:24:05;;;;;;;4.60;0.10;;;11.20;99.90;;;;;;5017950;28;20025;-75
2021/10/06 06:26:31;;;;;;;2.97;0.20;;;11.80;99.90;;;;;;5018068;28;20079;-75
2021/10/06 06:28:57;;;;;;;5.38;0.10;;;11.20;99.90;;;;;;5018728;28;20014;-75
2021/10/06 06:31:22;;;;;;;7.32;0.43;;;11.20;99.90;;;;;;5019532;28;20030;-75
2021/10/06 06:33:48;;;;;;;2.03;0.10;;;11.30;99.90;;;;;;5018191;28;20026;-75
2021/10/06 06:36:13;;;;;;;4.53;0.73;;;11.30;99.90;;;;;;5020734;28;20117;-76
2021/10/06 06:38:39;;;;;;;7.35;0.20;;;11.20;99.90;;;;;;5019746;28;20026;-76
2021/10/06 06:41:05;;;;;;;4.45;0.00;;;11.30;99.90;;;;;;5017399;28;20442;-77
2021/10/06 06:43:31;;;;;;;1.30;0.00;;;11.20;99.90;;;;;;5019360;28;20026;-76
2021/10/06 06:45:57;;;;;;;1.90;0.05;;;11.10;99.90;;;;;;5018346;28;20130;-76
2021/10/06 06:48:23;;;;;;;7.22;0.45;;;11.00;99.90;;;;;;5019120;28;20058;-77
2021/10/06 06:50:53;;;;;;;2.28;0.00;;;11.00;99.90;;;;;;5019607;28;20026;-77
2021/10/06 06:53:19;;;;;;;2.25;0.00;;;10.90;99.90;;;;;;5017071;28;20029;-76
2021/10/06 06:55:46;;;;;;;3.40;0.60;;;10.90;99.90;;;;;;5018222;28;20014;-76
2021/10/06 06:58:11;;;;;;;1.95;0.57;;;10.90;99.90;;;;;;5019272;28;20045;-76
2021/10/06 07:00:37;;;;;;;1.42;0.10;;;10.80;99.90;;;;;;5018933;28;20026;-76
2021/10/06 07:03:02;;;;;;;1.67;0.00;;;10.80;99.90;;;;;;5017305;28;20022;-74
2021/10/06 07:05:28;;;;;;;6.70;0.40;;;10.80;99.90;;;;;;5018976;28;20383;-77
2021/10/06 07:07:54;;;;;;;5.25;0.90;;;10.90;99.90;;;;;;5018706;28;20022;-74
2021/10/06 07:10:19;;;;;;;4.57;0.00;;;10.90;99.90;;;;;;5018821;28;20014;-74
2021/10/06 07:12:45;;;;;;;7.03;0.10;;;11.00;99.90;;;;;;5018934;28;20083;-74
2021/10/06 07:15:10;;;;;;;0.95;0.08;;;11.00;99.90;;;;;;5018771;28;20403;-75
2021/10/06 07:17:36;;;;;;;5.57;0.63;;;11.10;99.90;;;;;;5019167;28;20026;-75
2021/10/06 07:20:02;;;;;;;7.57;0.50;;;11.10;99.90;;;;;;5018651;28;20037;-75
2021/10/06 07:22:28;;;;;;;3.45;0.15;;;11.10;99.90;;;;;;5018640;28;20036;-75
2021/10/06 07:24:55;;;;;;;4.40;0.28;;;11.20;99.90;;;;;;5018508;28;20029;-75
2021/10/06 07:27:20;;;;;;;8.70;0.20;;;11.20;99.90;;;;;;5017338;28;20495;-75
2021/10/06 07:29:46;;;;;;;5.88;0.10;;;11.20;99.90;;;;;;5017189;28;20029;-75
2021/10/06 07:32:11;;;;;;;3.58;0.20;;;11.20;99.90;;;;;;5018477;28;20018;-75
2021/10/06 07:34:39;;;;;;;3.70;0.15;;;11.50;99.90;;;;;;5018542;28;20042;-75
2021/10/06 07:37:04;;;;;;;5.32;0.80;;;11.30;99.90;;;;;;5018655;28;20079;-75
2021/10/06 07:39:30;;;;;;;2.88;0.30;;;11.30;99.90;;;;;;5018452;28;20494;-74
2021/10/06 07:41:55;;;;;;;2.25;0.10;;;11.30;99.90;;;;;;5018401;28;20053;-75
2021/10/06 07:44:21;;;;;;;2.38;0.00;;;11.40;99.90;;;;;;5018057;28;20479;-75
2021/10/06 07:46:47;;;;;;;5.53;0.00;;;11.40;99.90;;;;;;5018292;28;20026;-75
2021/10/06 07:49:13;;;;;;;7.32;0.60;;;11.40;99.90;;;;;;5017236;28;20034;-75
2021/10/06 07:51:38;;;;;;;5.03;0.63;;;11.50;99.90;;;;;;5013155;28;20022;-75
2021/10/06 07:54:04;;;;;;;5.15;0.15;;;11.50;99.90;;;;;;5018577;28;20029;-75
2021/10/06 07:56:30;;;;;;;3.30;0.20;;;11.50;99.90;;;;;;5018798;28;20054;-75
2021/10/06 07:58:56;;;;;;;7.32;0.05;;;11.60;99.90;;;;;;5018484;28;20033;-76
2021/10/06 08:01:21;;;;;;;4.55;0.00;;;11.60;99.90;;;;;;5017628;28;20505;-74
2021/10/06 08:03:47;;;;;;;8.63;0.20;;;11.70;99.90;;;;;;5018103;28;20029;-76
2021/10/06 08:06:12;;;;;;;3.53;0.50;;;11.70;99.90;;;;;;5017767;28;20526;-76
2021/10/06 08:08:39;;;;;;;6.40;0.10;;;11.80;99.90;;;;;;5017537;28;20014;-76
2021/10/06 08:11:04;;;;;;;2.45;0.45;;;11.80;99.90;;;;;;5018469;28;20093;-76
2021/10/06 08:13:30;;;;;;;1.20;0.10;;;11.80;99.90;;;;;;5017749;28;20045;-76
2021/10/06 08:15:57;;;;;;;7.63;0.57;;;12.10;99.90;;;;;;5017737;28;20041;-76
2021/10/06 08:18:22;;;;;;;3.95;0.00;;;12.20;99.90;;;;;;5017826;28;20025;-76
2021/10/06 08:20:57;;;;;;;3.88;0.00;;;12.20;99.90;;;;;;5015861;28;20014;-77
2021/10/06 08:23:26;;;;;;;1.85;0.17;;;12.20;99.90;;;;;;5018069;28;20029;-76
2021/10/06 08:25:53;;;;;;;3.25;0.10;;;12.10;99.90;;;;;;5017632;28;20475;-76
2021/10/06 08:28:19;;;;;;;5.75;0.00;;;12.10;99.90;;;;;;5016502;28;20105;-76
2021/10/06 08:30:46;;;;;;;3.80;0.00;;;12.10;99.90;;;;;;5016250;28;20072;-76
2021/10/06 08:33:12;;;;;;;6.22;0.50;;;12.20;99.90;;;;;;5018101;28;20471;-75
2021/10/06 08:35:38;;;;;;;5.47;0.10;;;12.20;99.90;;;;;;5017584;28;20552;-75
2021/10/06 08:38:07;;;;;;;5.65;0.00;;;12.20;99.90;;;;;;5016370;28;20101;-76
2021/10/06 08:40:34;;;;;;;0.30;0.00;;;12.20;99.90;;;;;;5015733;28;20371;-76
2021/10/06 08:43:01;;;;;;;2.63;0.00;;;12.20;99.90;;;;;;5016383;28;20514;-76
2021/10/06 08:45:27;;;;;;;4.15;0.00;;;12.20;99.90;;;;;;5017254;28;20030;-76
2021/10/06 08:47:53;;;;;;;3.83;0.10;;;12.20;99.90;;;;;;5017429;28;20080;-76
2021/10/06 08:50:19;;;;;;;0.15;0.00;;;12.30;99.90;;;;;;5016303;28;20014;-76
2021/10/06 08:52:49;;;;;;;2.75;0.00;;;12.30;99.90;;;;;;5017291;28;20029;-76
2021/10/06 08:55:16;;;;;;;2.70;0.00;;;12.30;99.90;;;;;;5015658;28;20423;-77
2021/10/06 08:57:42;;;;;;;1.00;0.00;;;12.30;99.90;;;;;;5016201;28;20026;-77
2021/10/06 09:00:09;;;;;;;1.48;0.15;;;12.40;99.90;;;;;;5016697;28;20038;-76
2021/10/06 09:02:37;;;;;;;0.70;0.00;;;12.40;99.90;;;;;;5017664;28;20131;-75
2021/10/06 09:05:03;;;;;;;4.97;0.20;;;12.40;99.90;;;;;;5016878;28;20053;-76
2021/10/06 09:07:29;;;;;;;0.73;0.08;;;12.40;99.90;;;;;;5015307;28;20018;-73
2021/10/06 09:09:54;;;;;;;0.80;0.00;;;12.40;99.90;;;;;;5013729;28;20029;-75
2021/10/06 09:12:21;;;;;;;1.67;0.00;;;12.40;99.90;;;;;;5012574;28;20105;-75
2021/10/06 09:14:48;;;;;;;3.83;0.00;;;12.50;99.90;;;;;;5012186;28;20030;-75
2021/10/06 09:17:20;;;;;;;0.45;0.00;;;12.70;99.90;;;;;;5014221;28;20025;-75
2021/10/06 09:19:53;;;;;;;1.75;0.08;;;12.80;99.90;;;;;;5017806;28;20043;-75
2021/10/06 09:22:20;;;;;;;2.63;0.00;;;13.00;99.90;;;;;;5016330;28;20042;-76
2021/10/06 09:24:59;;;;;;;1.90;0.10;;;13.10;99.90;;;;;;5017707;28;20052;-76
2021/10/06 09:27:30;;;;;;;1.38;0.00;;;13.10;99.90;;;;;;5016298;28;20018;-76
2021/10/06 09:29:59;;;;;;;1.85;0.32;;;13.00;99.90;;;;;;5017864;28;20446;-76
2021/10/06 09:32:37;;;;;;;2.55;0.20;;;13.20;99.90;;;;;;5016125;28;20018;-77
2021/10/06 09:35:20;;;;;;;1.15;0.00;;;13.30;99.90;;;;;;5016040;28;20513;-76
2021/10/06 09:37:52;;;;;;;0.90;0.00;;;13.50;99.90;;;;;;5016052;28;20026;-76
2021/10/06 09:40:21;;;;;;;4.70;0.32;;;13.80;99.90;;;;;;5017148;28;20057;-76
2021/10/06 09:42:48;;;;;;;;;;;14.10;99.90;;;;;;5016407;28;20028;-76
2021/10/06 09:45:43;;;;;;;3.60;0.00;;;14.10;99.90;;;;;;5017351;28;19910;-76
2021/10/06 09:48:10;;;;;;;4.13;0.10;;;14.10;99.90;;;;;;5008808;28;20141;-76
2021/10/06 09:50:42;;;;;;;2.50;0.00;;;14.20;99.90;;;;;;5015895;28;20045;-76
2021/10/06 09:53:15;;;;;;;3.08;0.30;;;14.10;99.90;;;;;;5015863;28;20022;-75
2021/10/06 09:55:43;;;;;;;3.33;0.47;;;14.00;99.90;;;;;;5015640;28;20022;-75
2021/10/06 09:58:10;;;;;;;1.83;0.00;;;14.10;99.90;;;;;;5017219;28;20481;-75
2021/10/06 10:00:39;;;;;;;2.63;0.10;;;14.10;99.90;;;;;;5016936;28;20022;-76
2021/10/06 10:03:07;;;;;;;4.00;0.32;;;14.30;99.90;;;;;;5015688;28;20029;-76
2021/10/06 10:05:35;;;;;;;6.65;0.30;;;14.50;99.90;;;;;;5015552;28;20022;-76
2021/10/06 10:08:03;;;;;;;;;;;14.60;99.90;;;;;;5017372;28;20022;-76
2021/10/06 10:10:28;;;;;;;5.25;0.00;;;14.60;99.90;;;;;;5016926;28;20004;-76
2021/10/06 10:12:54;;;;;;;5.63;0.13;;;14.60;99.90;;;;;;5016581;28;20490;-76
2021/10/06 10:15:20;;;;;;;3.40;0.17;;;14.60;99.90;;;;;;5016959;28;20352;-76
2021/10/06 10:17:52;;;;;;;4.22;0.20;;;14.50;99.90;;;;;;5016812;28;20018;-76
2021/10/06 10:20:18;;;;;;;3.45;0.00;;;14.40;99.90;;;;;;5015282;28;20025;-76
2021/10/06 10:22:47;;;;;;;1.65;0.10;;;14.30;99.90;;;;;;5015270;28;20026;-76
2021/10/06 10:25:18;;;;;;;3.97;1.27;;;14.10;99.90;;;;;;5015031;28;20104;-76
2021/10/06 10:28:05;;;;;;;2.30;0.03;;;14.10;99.90;;;;;;5014992;28;20032;-76
2021/10/06 10:30:36;;;;;;;1.10;0.10;;;14.00;99.90;;;;;;5016274;28;20022;-76
2021/10/06 10:33:03;;;;;;;2.65;0.00;;;14.00;99.90;;;;;;5016566;28;20026;-76
2021/10/06 10:35:33;;;;;;;0.55;0.00;;;14.00;99.90;;;;;;5016242;28;20394;-76
2021/10/06 10:37:59;;;;;;;3.28;0.10;;;14.00;99.90;;;;;;5016109;28;20029;-75
2021/10/06 10:40:37;;;;;;;6.15;0.00;;;14.00;99.90;;;;;;5014825;28;20113;-75
2021/10/06 10:43:27;;;;;;;0.53;0.00;;;14.10;99.90;;;;;;5016451;28;20395;-74
2021/10/06 10:46:12;;;;;;;0.90;0.00;;;14.30;99.90;;;;;;5016760;28;20034;-74
2021/10/06 10:48:56;;;;;;;3.10;0.00;;;14.40;99.90;;;;;;5015112;28;20487;-74
2021/10/06 10:51:41;;;;;;;4.68;0.10;;;14.50;99.90;;;;;;5014571;28;20495;-75
2021/10/06 10:54:10;;;;;;;2.13;0.00;;;14.60;99.90;;;;;;5014636;28;20399;-76
2021/10/06 10:56:43;;;;;;;4.95;0.00;;;14.50;99.90;;;;;;5015723;28;20029;-77
2021/10/06 10:59:14;;;;;;;3.47;0.00;;;14.40;99.90;;;;;;5015756;28;20026;-76
2021/10/06 11:01:52;;;;;;;3.78;0.20;;;14.30;99.90;;;;;;5015849;28;20076;-76
2021/10/06 11:04:25;;;;;;;1.63;0.00;;;14.30;99.90;;;;;;5015630;28;20034;-76
2021/10/06 11:06:53;;;;;;;3.53;0.10;;;14.20;99.90;;;;;;5015165;28;20037;-76
2021/10/06 11:09:31;;;;;;;2.40;0.10;;;14.10;99.90;;;;;;5015975;28;20025;-76
2021/10/06 11:12:05;;;;;;;2.45;0.20;;;14.10;99.90;;;;;;5015498;28;20072;-77
2021/10/06 11:14:36;;;;;;;3.80;0.00;;;14.00;99.90;;;;;;5015875;28;20026;-76
2021/10/06 11:17:15;;;;;;;2.33;0.00;;;13.90;99.90;;;;;;5015975;28;20032;-76
2021/10/06 11:19:48;;;;;;;1.08;0.10;;;13.90;99.90;;;;;;5014289;28;20029;-76
2021/10/06 11:22:22;;;;;;;2.40;0.35;;;13.90;99.90;;;;;;5015628;28;20483;-76
2021/10/06 11:25:00;;;;;;;2.45;0.00;;;14.00;99.90;;;;;;5015610;28;20080;-76
2021/10/06 11:27:28;;;;;;;1.55;0.00;;;14.10;99.90;;;;;;5015757;28;20037;-77
2021/10/06 11:29:56;;;;;;;3.40;0.30;;;14.40;99.90;;;;;;5014016;28;20230;-76
2021/10/06 11:32:22;;;;;;;1.85;0.00;;;14.40;99.90;;;;;;5015779;28;20276;-75
2021/10/06 11:34:52;;;;;;;2.50;0.20;;;14.30;99.90;;;;;;5015500;28;20499;-75
2021/10/06 11:37:23;;;;;;;1.40;0.20;;;14.30;99.90;;;;;;5015480;28;20465;-76
2021/10/06 11:39:50;;;;;;;1.42;0.00;;;14.30;99.90;;;;;;5014579;28;20025;-76
2021/10/06 11:42:16;;;;;;;2.50;0.28;;;14.50;99.90;;;;;;5013795;28;20053;-76
2021/10/06 11:44:42;;;;;;;4.60;0.10;;;14.90;99.90;;;;;;5015081;28;20030;-76
2021/10/06 11:47:16;;;;;;;1.20;0.00;;;15.10;99.90;;;;;;5015110;28;20068;-76
2021/10/06 11:49:44;;;;;;;1.05;0.00;;;15.10;99.90;;;;;;5015486;28;20379;-76
2021/10/06 11:52:12;;;;;;;2.10;0.00;;;15.20;99.90;;;;;;5013826;28;20022;-76
2021/10/06 11:54:39;;;;;;;5.53;0.40;;;15.10;99.90;;;;;;5015020;28;20032;-76
2021/10/06 11:57:07;;;;;;;0.80;0.00;;;15.00;99.90;;;;;;5015951;28;20784;-75
2021/10/06 11:59:33;;;;;;;2.63;0.10;;;14.80;99.90;;;;;;5016513;28;20032;-74
2021/10/06 12:02:13;;;;;;;1.27;0.00;;;14.70;99.90;;;;;;5015556;28;20076;-74
2021/10/06 12:04:46;;;;;;;3.70;0.22;;;14.70;99.90;;;;;;5014663;28;20075;-73
2021/10/06 12:07:14;;;;;;;0.32;0.00;;;14.70;99.90;;;;;;5015669;28;20029;-73
2021/10/06 12:09:48;;;;;;;1.10;0.15;;;15.10;99.90;;;;;;5015022;28;20022;-74
2021/10/06 12:12:18;;;;;;;0.25;0.00;;;15.50;99.90;;;;;;5014970;28;20018;-75
2021/10/06 12:15:03;;;;;;;4.78;0.65;;;16.20;99.90;;;;;;5013126;28;20034;-75
2021/10/06 12:17:37;;;;;;;0.95;0.00;;;16.50;99.90;;;;;;5014475;28;20033;-75
2021/10/06 12:20:11;;;;;;;1.13;0.00;;;16.90;99.90;;;;;;5013001;28;20392;-75
2021/10/06 12:22:39;;;;;;;0.77;0.00;;;17.50;99.90;;;;;;5014163;28;20072;-75
2021/10/06 12:25:11;;;;;;;1.70;0.10;;;17.60;99.90;;;;;;5012840;28;20026;-75
2021/10/06 12:27:47;;;;;;;1.60;0.00;;;17.30;99.90;;;;;;5014520;28;20021;-75
2021/10/06 12:30:14;;;;;;;0.13;0.10;;;17.00;99.90;;;;;;5012744;28;20029;-75
2021/10/06 12:32:41;;;;;;;1.70;0.15;;;16.60;99.90;;;;;;5013984;28;20419;-75
2021/10/06 12:35:17;;;;;;;2.67;0.00;;;16.30;99.90;;;;;;5013860;28;20033;-75
2021/10/06 12:37:58;;;;;;;5.13;0.03;;;16.00;99.90;;;;;;5014021;28;20394;-75
2021/10/06 12:40:42;;;;;;;3.25;0.00;;;15.80;99.90;;;;;;5013874;28;20022;-75
2021/10/06 12:43:18;;;;;;;0.32;0.00;;;15.70;99.90;;;;;;5012477;28;20057;-75
2021/10/06 12:46:04;;;;;;;1.80;0.10;;;15.60;99.90;;;;;;5012547;28;20432;-75
2021/10/06 12:48:42;;;;;;;1.23;0.00;;;15.50;99.90;;;;;;5012457;28;20475;-75
2021/10/06 12:51:14;;;;;;;0.52;0.00;;;15.60;99.90;;;;;;5013210;28;20112;-75